createdAt,value
2022-09-22T00:02:59.907Z,6.10
2022-09-22T00:06:07.781Z,5.40
2022-09-22T00:09:13.864Z,5.17
2022-09-22T00:12:17.057Z,4.67
2022-09-22T00:15:20.182Z,5.30
2022-09-22T00:18:23.178Z,4.20
2022-09-22T00:21:27.805Z,4.57
2022-09-22T00:24:31.814Z,4.90
2022-09-22T00:27:35.367Z,4.07
2022-09-22T00:30:42.325Z,4.73
2022-09-22T00:33:46.317Z,4.20
2022-09-22T00:36:51.797Z,4.60
2022-09-22T00:39:54.742Z,3.60
2022-09-22T00:43:14.645Z,4.30
2022-09-22T00:46:22.898Z,3.60
2022-09-22T00:49:33.459Z,3.90
2022-09-22T00:52:44.581Z,4.17
2022-09-22T00:55:51.271Z,4.00
2022-09-22T00:59:00.512Z,4.27
2022-09-22T01:02:04.120Z,4.33
2022-09-22T01:05:09.312Z,4.43
2022-09-22T01:08:16.085Z,4.27
2022-09-22T01:11:20.773Z,5.90
2022-09-22T01:14:51.165Z,4.80
2022-09-22T01:18:14.337Z,5.33
2022-09-22T01:21:35.539Z,5.27
2022-09-22T01:24:52.485Z,4.80
2022-09-22T01:28:29.623Z,4.23
2022-09-22T01:31:38.244Z,4.53
2022-09-22T01:34:50.032Z,3.97
2022-09-22T01:38:04.904Z,4.30
2022-09-22T01:41:12.357Z,4.13
2022-09-22T01:44:20.778Z,4.37
2022-09-22T01:47:32.453Z,4.97
2022-09-22T01:50:40.895Z,5.00
2022-09-22T01:53:50.156Z,4.80
2022-09-22T01:56:59.590Z,5.67
2022-09-22T02:00:07.464Z,4.93
2022-09-22T02:03:22.465Z,5.23
2022-09-22T02:06:33.369Z,4.63
2022-09-22T02:09:39.942Z,4.90
2022-09-22T02:12:47.529Z,5.27
2022-09-22T02:16:02.770Z,5.10
2022-09-22T02:19:13.758Z,5.60
2022-09-22T02:22:16.841Z,5.27
2022-09-22T02:25:20.864Z,5.53
2022-09-22T02:28:25.930Z,5.70
2022-09-22T02:31:33.676Z,5.27
2022-09-22T02:34:38.202Z,5.93
2022-09-22T02:37:49.611Z,6.17
2022-09-22T02:41:00.600Z,6.83
2022-09-22T02:44:09.564Z,6.57
2022-09-22T02:47:18.549Z,6.10
2022-09-22T02:50:26.719Z,6.13
2022-09-22T02:53:29.704Z,5.73
2022-09-22T02:56:33.454Z,5.83
2022-09-22T02:59:36.456Z,6.10
2022-09-22T03:02:39.863Z,6.20
2022-09-22T03:05:44.153Z,6.47
2022-09-22T03:08:47.110Z,6.87
2022-09-22T03:11:50.056Z,6.83
2022-09-22T03:14:53.232Z,7.47
2022-09-22T03:17:56.585Z,5.57
2022-09-22T03:21:00.858Z,5.77
2022-09-22T03:24:04.671Z,5.97
2022-09-22T03:27:07.701Z,5.47
2022-09-22T03:30:12.600Z,6.10
2022-09-22T03:33:15.879Z,5.70
2022-09-22T03:36:20.177Z,5.73
2022-09-22T03:39:23.272Z,6.00
2022-09-22T03:42:26.346Z,5.93
2022-09-22T03:45:29.303Z,6.10
2022-09-22T03:48:32.664Z,5.60
2022-09-22T03:51:37.010Z,5.73
2022-09-22T03:54:40.119Z,5.30
2022-09-22T03:57:43.854Z,5.80
2022-09-22T04:00:46.821Z,5.57
2022-09-22T04:03:49.763Z,5.50
2022-09-22T04:06:54.110Z,5.50
2022-09-22T04:09:57.581Z,5.70
2022-09-22T04:13:00.703Z,4.93
2022-09-22T04:16:06.898Z,5.67
2022-09-22T04:19:10.176Z,5.50
2022-09-22T04:22:14.774Z,5.60
2022-09-22T04:25:17.871Z,6.50
2022-09-22T04:28:20.879Z,6.90
2022-09-22T04:31:23.918Z,6.50
2022-09-22T04:34:26.933Z,5.50
2022-09-22T04:37:31.220Z,5.53
2022-09-22T04:40:34.990Z,6.10
2022-09-22T04:43:38.051Z,6.07
2022-09-22T04:46:41.741Z,6.50
2022-09-22T04:49:44.887Z,6.17
2022-09-22T04:52:53.541Z,5.70
2022-09-22T04:55:57.152Z,6.13
2022-09-22T04:59:00.350Z,5.70
2022-09-22T05:02:03.605Z,6.30
2022-09-22T05:05:08.255Z,6.27
2022-09-22T05:08:12.564Z,5.97
2022-09-22T05:11:15.593Z,6.53
2022-09-22T05:14:24.086Z,6.77
2022-09-22T05:17:29.770Z,6.17
2022-09-22T05:20:33.236Z,6.10
2022-09-22T05:23:37.622Z,6.60
2022-09-22T05:26:40.531Z,6.30
2022-09-22T05:29:43.644Z,6.30
2022-09-22T05:32:48.797Z,6.80
2022-09-22T05:35:51.757Z,7.10
2022-09-22T05:38:56.226Z,6.87
2022-09-22T05:42:02.150Z,6.97
2022-09-22T05:45:06.059Z,6.60
2022-09-22T05:48:09.412Z,7.33
2022-09-22T05:51:12.518Z,7.03
2022-09-22T05:54:20.108Z,6.60
2022-09-22T05:57:27.480Z,6.27
2022-09-22T06:00:31.497Z,6.07
2022-09-22T06:03:34.473Z,7.90
2022-09-22T06:06:37.369Z,7.60
2022-09-22T06:09:41.723Z,7.13
2022-09-22T06:12:46.791Z,6.60
2022-09-22T06:15:50.467Z,6.57
2022-09-22T06:18:53.725Z,6.70
2022-09-22T06:21:56.981Z,6.83
2022-09-22T06:25:01.817Z,6.67
2022-09-22T06:28:07.184Z,6.80
2022-09-22T06:31:10.149Z,7.37
2022-09-22T06:34:13.118Z,7.30
2022-09-22T06:37:16.990Z,6.23
2022-09-22T06:40:21.736Z,6.60
2022-09-22T06:43:24.728Z,5.90
2022-09-22T06:46:29.927Z,6.20
2022-09-22T06:49:33.005Z,5.63
2022-09-22T06:52:38.414Z,6.40
2022-09-22T06:55:43.120Z,6.07
2022-09-22T06:59:08.359Z,5.33
2022-09-22T07:02:11.195Z,5.13
2022-09-22T07:05:14.501Z,4.33
2022-09-22T07:08:17.575Z,4.70
2022-09-22T07:11:23.521Z,4.80
2022-09-22T07:14:26.746Z,4.93
2022-09-22T07:17:31.735Z,5.80
2022-09-22T07:20:35.630Z,4.90
2022-09-22T07:23:38.843Z,5.07
2022-09-22T07:26:44.028Z,4.80
2022-09-22T07:29:47.932Z,4.87
2022-09-22T07:32:50.915Z,4.50
2022-09-22T07:36:08.858Z,5.27
2022-09-22T07:39:12.514Z,4.83
2022-09-22T07:42:17.405Z,5.03
2022-09-22T07:45:21.885Z,5.23
2022-09-22T07:48:37.467Z,4.30
2022-09-22T07:51:41.265Z,3.97
2022-09-22T07:54:44.956Z,4.03
2022-09-22T07:57:55.611Z,4.13
2022-09-22T08:00:58.570Z,4.10
2022-09-22T08:04:02.615Z,4.77
2022-09-22T08:07:05.550Z,4.47
2022-09-22T08:10:10.827Z,4.73
2022-09-22T08:13:16.011Z,3.53
2022-09-22T08:16:19.248Z,4.10
2022-09-22T08:19:24.575Z,3.80
2022-09-22T08:22:27.635Z,3.93
2022-09-22T08:25:30.631Z,3.40
2022-09-22T08:28:35.961Z,3.17
2022-09-22T08:31:42.083Z,3.00
2022-09-22T08:34:45.103Z,2.17
2022-09-22T08:37:50.328Z,2.43
2022-09-22T08:41:15.201Z,3.47
2022-09-22T08:44:23.930Z,3.40
2022-09-22T08:47:51.964Z,3.67
2022-09-22T08:51:18.935Z,3.53
2022-09-22T08:54:26.867Z,2.37
2022-09-22T08:57:56.960Z,2.57
2022-09-22T09:01:14.558Z,2.03
2022-09-22T09:04:53.930Z,2.43
2022-09-22T09:08:04.431Z,1.90
2022-09-22T09:11:19.569Z,1.80
2022-09-22T09:14:41.708Z,1.98
2022-09-22T09:17:48.318Z,2.27
2022-09-22T09:20:53.210Z,2.22
2022-09-22T09:27:28.829Z,2.00
2022-09-22T09:30:42.665Z,1.83
2022-09-22T09:33:56.735Z,1.83
2022-09-22T09:37:07.769Z,2.35
2022-09-22T09:40:18.333Z,1.90
2022-09-22T09:43:23.812Z,2.07
2022-09-22T09:46:43.815Z,2.08
2022-09-22T09:49:52.785Z,2.30
2022-09-22T09:52:58.252Z,1.70
2022-09-22T09:56:01.713Z,2.20
2022-09-22T09:59:25.240Z,2.13
2022-09-22T10:02:31.544Z,2.10
2022-09-22T10:05:38.196Z,1.90
2022-09-22T10:08:46.689Z,1.95
2022-09-22T10:12:00.162Z,1.52
2022-09-22T10:15:12.535Z,1.60
2022-09-22T10:18:35.694Z,2.35
2022-09-22T10:21:39.958Z,1.88
2022-09-22T10:24:58.736Z,2.20
2022-09-22T10:28:06.866Z,1.88
2022-09-22T10:31:21.959Z,2.10
2022-09-22T10:34:31.967Z,1.83
2022-09-22T10:37:36.387Z,2.17
2022-09-22T10:40:42.538Z,2.42
2022-09-22T10:43:51.647Z,2.00
2022-09-22T10:47:30.129Z,2.30
2022-09-22T10:50:52.099Z,2.50
2022-09-22T10:54:24.503Z,1.77
2022-09-22T10:58:00.386Z,2.00
2022-09-22T11:01:29.311Z,2.55
2022-09-22T11:04:57.836Z,1.50
2022-09-22T11:08:27.046Z,2.00
2022-09-22T11:11:59.422Z,1.73
2022-09-22T11:15:19.845Z,2.13
2022-09-22T11:18:58.188Z,1.80
2022-09-22T11:22:22.249Z,1.58
2022-09-22T11:25:49.087Z,1.42
2022-09-22T11:29:23.293Z,1.65
2022-09-22T11:33:02.248Z,1.70
2022-09-22T11:36:21.619Z,1.88
2022-09-22T11:39:41.055Z,1.90
2022-09-22T11:42:59.435Z,1.90
2022-09-22T11:46:17.536Z,2.38
2022-09-22T11:49:36.654Z,1.65
2022-09-22T11:53:18.086Z,1.80
2022-09-22T11:56:35.311Z,1.45
2022-09-22T11:59:44.634Z,1.33
2022-09-22T12:02:56.108Z,1.80
2022-09-22T12:06:08.474Z,1.73
2022-09-22T12:09:23.546Z,1.73
2022-09-22T12:12:29.505Z,1.40
2022-09-22T12:15:39.063Z,1.48
2022-09-22T12:18:49.883Z,1.10
2022-09-22T12:21:59.726Z,1.55
2022-09-22T12:25:02.699Z,1.30
2022-09-22T12:28:05.644Z,1.60
2022-09-22T12:31:12.986Z,1.52
2022-09-22T12:34:22.886Z,1.70
2022-09-22T12:37:30.478Z,1.70
2022-09-22T12:40:37.806Z,1.67
2022-09-22T12:43:41.659Z,1.48
2022-09-22T12:46:45.325Z,1.70
2022-09-22T12:49:57.075Z,1.30
2022-09-22T12:53:04.892Z,1.33
2022-09-22T12:56:47.073Z,1.40
2022-09-22T13:00:20.921Z,1.33
2022-09-22T13:03:49.634Z,1.10
2022-09-22T13:07:00.650Z,1.67
2022-09-22T13:10:57.931Z,1.70
2022-09-22T13:14:02.438Z,1.27
2022-09-22T13:17:42.936Z,1.42
2022-09-22T13:20:47.420Z,1.40
2022-09-22T13:23:59.826Z,1.60
2022-09-22T13:27:05.894Z,1.40
2022-09-22T13:30:14.017Z,1.65
2022-09-22T13:33:23.298Z,1.63
2022-09-22T13:36:28.781Z,2.30
2022-09-22T13:39:35.193Z,2.58
2022-09-22T13:42:38.534Z,1.30
2022-09-22T13:45:46.699Z,22.35
2022-09-22T13:48:51.943Z,1.58
2022-09-22T13:52:00.421Z,1.77
2022-09-22T13:55:11.502Z,1.45
2022-09-22T13:58:16.558Z,1.60
2022-09-22T14:01:26.704Z,2.00
2022-09-22T14:04:29.772Z,1.85
2022-09-22T14:07:45.166Z,1.50
2022-09-22T14:10:53.274Z,1.50
2022-09-22T14:14:01.486Z,1.38
2022-09-22T14:17:09.731Z,1.33
2022-09-22T14:20:16.439Z,1.70
2022-09-22T14:23:29.128Z,1.15
2022-09-22T14:26:37.544Z,1.40
2022-09-22T14:29:41.590Z,1.52
2022-09-22T14:32:50.270Z,1.50
2022-09-22T14:36:01.317Z,1.70
2022-09-22T14:39:10.257Z,1.73
2022-09-22T14:42:21.191Z,1.80
2022-09-22T14:45:27.229Z,1.40
2022-09-22T14:48:34.067Z,1.95
2022-09-22T14:51:37.391Z,1.60
2022-09-22T14:54:40.702Z,1.50
2022-09-22T14:57:49.962Z,1.70
2022-09-22T15:01:14.830Z,1.70
2022-09-22T15:04:28.891Z,1.77
2022-09-22T15:07:35.855Z,1.80
2022-09-22T15:10:40.819Z,2.10
2022-09-22T15:13:46.278Z,1.77
2022-09-22T15:16:49.362Z,1.80
2022-09-22T15:19:58.446Z,1.60
2022-09-22T15:23:01.738Z,1.73
2022-09-22T15:26:05.553Z,2.15
2022-09-22T15:29:15.867Z,2.50
2022-09-22T15:32:19.103Z,2.25
2022-09-22T15:35:27.246Z,2.28
2022-09-22T15:38:35.086Z,2.17
2022-09-22T15:41:38.750Z,2.58
2022-09-22T15:44:42.143Z,2.72
2022-09-22T15:47:46.236Z,2.42
2022-09-22T15:50:51.254Z,2.30
2022-09-22T15:53:54.178Z,2.88
2022-09-22T15:57:00.445Z,2.70
2022-09-22T16:00:14.362Z,3.10
2022-09-22T16:03:22.502Z,2.88
2022-09-22T16:06:27.115Z,4.32
2022-09-22T16:09:30.221Z,3.28
2022-09-22T16:12:33.262Z,3.25
2022-09-22T16:15:36.311Z,3.13
2022-09-22T16:18:41.779Z,2.20
2022-09-22T16:21:54.148Z,2.20
2022-09-22T16:24:57.524Z,2.85
2022-09-22T16:28:00.989Z,2.42
2022-09-22T16:31:04.556Z,2.28
2022-09-22T16:34:10.678Z,2.10
2022-09-22T16:37:16.001Z,1.80
2022-09-22T16:40:19.927Z,2.30
2022-09-22T16:43:22.891Z,2.40
2022-09-22T16:46:28.002Z,2.67
2022-09-22T16:49:34.004Z,2.30
2022-09-22T16:52:40.448Z,2.40
2022-09-22T16:55:49.205Z,2.35
2022-09-22T16:58:53.316Z,2.72
2022-09-22T17:01:57.034Z,3.00
2022-09-22T17:05:00.017Z,2.67
2022-09-22T17:08:06.969Z,2.80
2022-09-22T17:11:12.137Z,3.47
2022-09-22T17:14:17.194Z,3.03
2022-09-22T17:17:20.231Z,2.50
2022-09-22T17:20:24.603Z,3.20
2022-09-22T17:23:28.958Z,3.07
2022-09-22T17:26:35.343Z,3.23
2022-09-22T17:29:39.003Z,2.77
2022-09-22T17:32:41.990Z,3.93
2022-09-22T17:35:44.977Z,3.90
2022-09-22T17:38:51.514Z,3.73
2022-09-22T17:41:55.028Z,3.73
2022-09-22T17:44:58.088Z,3.90
2022-09-22T17:48:18.962Z,3.27
2022-09-22T17:51:48.411Z,4.43
2022-09-22T17:55:08.987Z,4.50
2022-09-22T17:58:11.935Z,5.93
2022-09-22T18:01:15.069Z,5.53
2022-09-22T18:04:18.038Z,6.27
2022-09-22T18:07:23.847Z,4.60
2022-09-22T18:10:32.379Z,4.43
2022-09-22T18:13:39.154Z,4.70
2022-09-22T18:16:43.697Z,5.37
2022-09-22T18:19:48.346Z,6.93
2022-09-22T18:22:51.388Z,5.50
2022-09-22T18:25:55.692Z,7.17
2022-09-22T18:28:59.141Z,6.30
2022-09-22T18:32:03.853Z,5.90
2022-09-22T18:35:08.466Z,5.80
2022-09-22T18:38:12.125Z,6.53
2022-09-22T18:41:19.696Z,6.77
2022-09-22T18:44:23.523Z,7.20
2022-09-22T18:47:26.601Z,8.00
2022-09-22T18:50:31.149Z,8.90
2022-09-22T18:53:34.189Z,7.87
2022-09-22T18:56:41.149Z,8.30
2022-09-22T18:59:44.291Z,8.90
2022-09-22T19:02:48.122Z,7.70
2022-09-22T19:05:51.467Z,8.50
2022-09-22T19:08:54.570Z,10.30
2022-09-22T19:11:59.854Z,10.07
2022-09-22T19:15:03.307Z,9.50
2022-09-22T19:18:07.526Z,9.40
2022-09-22T19:21:14.282Z,9.10
2022-09-22T19:24:17.687Z,9.13
2022-09-22T19:27:22.603Z,7.87
2022-09-22T19:30:28.582Z,7.10
2022-09-22T19:33:34.309Z,7.23
2022-09-22T19:36:38.688Z,8.00
2022-09-22T19:39:43.076Z,7.50
2022-09-22T19:42:48.707Z,7.30
2022-09-22T19:45:52.661Z,7.37
2022-09-22T19:48:57.188Z,8.60
2022-09-22T19:52:00.289Z,8.37
2022-09-22T19:55:03.643Z,7.27
2022-09-22T19:58:08.165Z,7.37
2022-09-22T20:01:11.606Z,7.47
2022-09-22T20:04:17.869Z,8.67
2022-09-22T20:07:20.848Z,8.27
2022-09-22T20:10:24.251Z,8.00
2022-09-22T20:13:46.226Z,8.20
2022-09-22T20:16:51.720Z,10.67
2022-09-22T20:19:55.315Z,11.00
2022-09-22T20:23:00.291Z,11.37
2022-09-22T20:26:03.635Z,12.00
2022-09-22T20:29:08.019Z,11.80
2022-09-22T20:32:11.484Z,11.53
2022-09-22T20:35:17.959Z,12.20
2022-09-22T20:38:21.016Z,10.97
2022-09-22T20:41:24.972Z,11.20
2022-09-22T20:44:29.310Z,11.23
2022-09-22T20:47:32.863Z,11.80
2022-09-22T20:50:36.148Z,11.50
2022-09-22T20:53:39.567Z,11.30
2022-09-22T20:56:43.130Z,11.53
2022-09-22T20:59:47.587Z,11.37
2022-09-22T21:02:52.269Z,11.47
2022-09-22T21:06:00.265Z,12.47
2022-09-22T21:09:21.099Z,11.63
2022-09-22T21:12:30.053Z,11.83
2022-09-22T21:15:35.581Z,11.23
2022-09-22T21:18:40.023Z,11.77
2022-09-22T21:21:42.987Z,10.30
2022-09-22T21:24:48.864Z,11.53
2022-09-22T21:27:51.806Z,12.47
2022-09-22T21:31:01.481Z,12.47
2022-09-22T21:34:04.815Z,11.97
2022-09-22T21:37:08.107Z,11.80
2022-09-22T21:40:11.353Z,12.30
2022-09-22T21:43:14.461Z,12.77
2022-09-22T21:46:21.951Z,11.60
2022-09-22T21:49:25.011Z,11.73
2022-09-22T21:52:28.191Z,11.23
2022-09-22T21:55:31.352Z,11.73
2022-09-22T21:58:37.078Z,11.00
2022-09-22T22:01:44.918Z,10.90
2022-09-22T22:04:48.049Z,11.87
2022-09-22T22:07:51.082Z,11.83
2022-09-22T22:11:04.430Z,11.27
2022-09-22T22:14:11.054Z,11.17
2022-09-22T22:17:15.642Z,11.57
2022-09-22T22:20:18.564Z,10.93
2022-09-22T22:23:21.955Z,11.10
2022-09-22T22:26:26.810Z,11.23
2022-09-22T22:29:32.242Z,10.83
2022-09-22T22:32:37.068Z,10.87
2022-09-22T22:35:39.987Z,10.77
2022-09-22T22:38:44.835Z,11.17
2022-09-22T22:41:48.653Z,10.63
2022-09-22T22:44:51.675Z,11.63
2022-09-22T22:47:56.244Z,11.10
2022-09-22T22:51:03.470Z,11.43
2022-09-22T22:54:10.859Z,11.30
2022-09-22T22:57:13.862Z,10.63
2022-09-22T23:00:16.993Z,10.17
2022-09-22T23:03:21.721Z,9.80
2022-09-22T23:06:27.298Z,10.60
2022-09-22T23:09:30.242Z,10.20
2022-09-22T23:12:34.547Z,9.27
2022-09-22T23:15:37.526Z,10.73
2022-09-22T23:18:43.561Z,9.87
2022-09-22T23:21:47.116Z,9.70
2022-09-22T23:24:50.032Z,9.67
2022-09-22T23:27:53.649Z,9.83
2022-09-22T23:31:02.811Z,9.43
2022-09-22T23:34:07.182Z,9.20
2022-09-22T23:37:10.555Z,9.60
2022-09-22T23:40:13.541Z,9.77
2022-09-22T23:43:17.038Z,10.37
2022-09-22T23:46:21.206Z,10.00
2022-09-22T23:49:25.712Z,8.77
2022-09-22T23:52:28.666Z,8.93
2022-09-22T23:55:32.898Z,8.97
2022-09-22T23:58:38.021Z,9.03
